createdAt,value
2022-08-25T00:00:00.935Z,46.98
2022-08-25T00:00:20.933Z,46.98
2022-08-25T00:00:30.950Z,46.98
2022-08-25T00:00:40.931Z,46.98
2022-08-25T00:00:50.933Z,46.98
2022-08-25T00:01:00.928Z,47.09
2022-08-25T00:01:10.928Z,47.09
2022-08-25T00:02:45.540Z,47.09
2022-08-25T00:02:59.598Z,46.98
2022-08-25T00:03:05.544Z,46.98
2022-08-25T00:03:15.494Z,46.98
2022-08-25T00:03:25.498Z,46.98
2022-08-25T00:03:35.971Z,46.98
2022-08-25T00:03:45.518Z,46.98
2022-08-25T00:03:55.494Z,46.89
2022-08-25T00:04:05.494Z,46.89
2022-08-25T00:04:15.491Z,46.98
2022-08-25T00:04:25.493Z,46.98
2022-08-25T00:04:35.486Z,46.98
2022-08-25T00:04:45.491Z,46.98
2022-08-25T00:04:58.209Z,46.98
2022-08-25T00:05:05.569Z,46.89
2022-08-25T00:05:15.553Z,46.89
2022-08-25T00:05:25.560Z,46.89
2022-08-25T00:05:35.528Z,46.98
2022-08-25T00:05:45.520Z,46.98
2022-08-25T00:05:55.525Z,46.98
2022-08-25T00:06:05.480Z,46.98
2022-08-25T00:06:15.475Z,46.98
2022-08-25T00:06:25.480Z,46.98
2022-08-25T00:06:35.475Z,47.09
2022-08-25T00:06:45.475Z,46.98
2022-08-25T00:06:59.446Z,46.98
2022-08-25T00:07:06.784Z,47.09
2022-08-25T00:07:18.540Z,47.09
2022-08-25T00:07:25.469Z,46.98
2022-08-25T00:07:35.466Z,46.98
2022-08-25T00:07:45.471Z,46.98
2022-08-25T00:07:55.465Z,46.98
2022-08-25T00:08:05.633Z,47.19
2022-08-25T00:08:15.463Z,47.19
2022-08-25T00:08:25.466Z,47.19
2022-08-25T00:08:35.459Z,47.19
2022-08-25T00:08:45.462Z,47.19
2022-08-25T00:08:55.458Z,47.28
2022-08-25T00:09:05.460Z,47.19
2022-08-25T00:09:15.455Z,47.28
2022-08-25T00:09:25.468Z,47.38
2022-08-25T00:09:35.453Z,47.38
2022-08-25T00:09:45.457Z,47.38
2022-08-25T00:09:55.453Z,47.38
2022-08-25T00:10:05.454Z,47.38
2022-08-25T00:10:15.454Z,47.28
2022-08-25T00:10:25.454Z,47.28
2022-08-25T00:10:35.448Z,47.38
2022-08-25T00:10:45.462Z,47.28
2022-08-25T00:11:07.794Z,47.28
2022-08-25T00:11:12.460Z,47.28
2022-08-25T00:11:22.456Z,47.19
2022-08-25T00:11:32.467Z,47.19
2022-08-25T00:11:42.453Z,47.28
2022-08-25T00:11:52.457Z,47.19
2022-08-25T00:12:02.452Z,47.19
2022-08-25T00:12:12.465Z,47.19
2022-08-25T00:12:22.451Z,47.19
2022-08-25T00:12:32.450Z,47.19
2022-08-25T00:12:42.446Z,47.19
2022-08-25T00:12:52.450Z,47.19
2022-08-25T00:13:02.446Z,47.19
2022-08-25T00:13:12.445Z,47.19
2022-08-25T00:13:22.443Z,47.09
2022-08-25T00:13:32.445Z,47.09
2022-08-25T00:13:42.442Z,47.09
2022-08-25T00:13:52.444Z,47.19
2022-08-25T00:14:02.438Z,47.19
2022-08-25T00:14:12.441Z,47.19
2022-08-25T00:14:22.436Z,47.28
2022-08-25T00:14:32.439Z,47.19
2022-08-25T00:14:42.435Z,47.19
2022-08-25T00:14:52.436Z,47.19
2022-08-25T00:15:02.433Z,47.09
2022-08-25T00:15:12.434Z,47.09
2022-08-25T00:15:22.429Z,47.09
2022-08-25T00:15:32.561Z,47.09
2022-08-25T00:15:42.505Z,47.09
2022-08-25T00:15:52.471Z,47.09
2022-08-25T00:16:02.463Z,46.98
2022-08-25T00:16:12.453Z,47.09
2022-08-25T00:16:22.465Z,47.09
2022-08-25T00:16:32.441Z,46.98
2022-08-25T00:16:42.424Z,47.09
2022-08-25T00:16:52.422Z,46.98
2022-08-25T00:17:02.434Z,46.98
2022-08-25T00:17:12.421Z,47.09
2022-08-25T00:17:22.419Z,47.09
2022-08-25T00:17:32.417Z,47.09
2022-08-25T00:17:42.410Z,47.09
2022-08-25T00:17:52.415Z,47.09
2022-08-25T00:18:02.412Z,47.09
2022-08-25T00:18:19.576Z,47.09
2022-08-25T00:18:24.538Z,46.98
2022-08-25T00:18:32.410Z,47.09
2022-08-25T00:18:42.408Z,47.09
2022-08-25T00:18:52.410Z,47.19
2022-08-25T00:19:02.402Z,47.19
2022-08-25T00:19:12.407Z,47.19
2022-08-25T00:19:22.401Z,47.09
2022-08-25T00:19:32.403Z,47.19
2022-08-25T00:19:42.400Z,47.09
2022-08-25T00:19:52.404Z,47.19
2022-08-25T00:20:02.398Z,47.09
2022-08-25T00:20:12.400Z,47.09
2022-08-25T00:20:22.397Z,47.09
2022-08-25T00:20:32.396Z,47.19
2022-08-25T00:20:43.296Z,47.19
2022-08-25T00:20:53.604Z,47.28
2022-08-25T00:21:02.391Z,47.28
2022-08-25T00:21:12.393Z,47.28
2022-08-25T00:21:22.385Z,47.19
2022-08-25T00:21:32.389Z,47.19
2022-08-25T00:21:42.385Z,47.19
2022-08-25T00:21:52.388Z,47.19
2022-08-25T00:22:02.385Z,47.28
2022-08-25T00:22:12.387Z,47.19
2022-08-25T00:22:22.381Z,47.19
2022-08-25T00:22:32.384Z,47.19
2022-08-25T00:22:42.378Z,47.19
2022-08-25T00:22:52.380Z,47.19
2022-08-25T00:23:02.377Z,47.19
2022-08-25T00:23:12.379Z,47.28
2022-08-25T00:23:22.373Z,47.38
2022-08-25T00:23:32.376Z,47.38
2022-08-25T00:23:42.371Z,47.38
2022-08-25T00:23:52.374Z,47.49
2022-08-25T00:24:02.403Z,47.49
2022-08-25T00:24:12.372Z,47.58
2022-08-25T00:24:22.368Z,47.58
2022-08-25T00:24:32.370Z,47.61
2022-08-25T00:24:42.365Z,47.61
2022-08-25T00:25:02.362Z,47.61
2022-08-25T00:25:12.368Z,47.49
2022-08-25T00:25:22.359Z,47.49
2022-08-25T00:25:32.367Z,47.49
2022-08-25T00:25:42.360Z,47.38
2022-08-25T00:25:52.375Z,47.38
2022-08-25T00:26:02.359Z,47.28
2022-08-25T00:26:12.357Z,47.28
2022-08-25T00:26:22.356Z,47.28
2022-08-25T00:26:32.357Z,47.28
2022-08-25T00:26:42.351Z,47.28
2022-08-25T00:26:52.354Z,47.28
2022-08-25T00:27:02.348Z,47.28
2022-08-25T00:27:12.351Z,47.28
2022-08-25T00:27:22.347Z,47.38
2022-08-25T00:27:32.348Z,47.28
2022-08-25T00:27:42.344Z,47.28
2022-08-25T00:27:52.349Z,47.28
2022-08-25T00:28:07.785Z,47.28
2022-08-25T00:28:13.109Z,47.28
2022-08-25T00:28:22.340Z,47.28
2022-08-25T00:28:32.343Z,47.28
2022-08-25T00:28:42.339Z,47.38
2022-08-25T00:28:52.339Z,47.38
2022-08-25T00:29:02.340Z,47.38
2022-08-25T00:29:12.341Z,47.38
2022-08-25T00:29:22.333Z,47.38
2022-08-25T00:29:32.347Z,47.49
2022-08-25T00:29:42.332Z,47.49
2022-08-25T00:30:02.327Z,47.49
2022-08-25T00:30:12.333Z,47.38
2022-08-25T00:30:22.342Z,47.38
2022-08-25T00:30:32.350Z,47.38
2022-08-25T00:30:42.364Z,47.38
2022-08-25T00:30:52.374Z,47.38
2022-08-25T00:31:02.336Z,47.38
2022-08-25T00:31:12.365Z,47.38
2022-08-25T00:31:22.399Z,47.28
2022-08-25T00:31:38.167Z,47.38
2022-08-25T00:31:43.452Z,47.38
2022-08-25T00:31:52.319Z,47.38
2022-08-25T00:32:02.316Z,47.49
2022-08-25T00:32:12.317Z,47.49
2022-08-25T00:32:22.316Z,47.49
2022-08-25T00:32:32.313Z,47.49
2022-08-25T00:32:42.316Z,47.49
2022-08-25T00:32:55.338Z,47.38
2022-08-25T00:33:02.311Z,47.49
2022-08-25T00:33:12.306Z,47.49
2022-08-25T00:33:22.308Z,47.49
2022-08-25T00:33:32.304Z,47.49
2022-08-25T00:33:42.304Z,47.49
2022-08-25T00:33:52.305Z,47.49
2022-08-25T00:34:02.307Z,47.49
2022-08-25T00:34:12.298Z,47.58
2022-08-25T00:34:22.304Z,47.58
2022-08-25T00:34:32.297Z,47.61
2022-08-25T00:34:42.313Z,47.71
2022-08-25T00:35:02.298Z,47.71
2022-08-25T00:35:12.294Z,47.80
2022-08-25T00:35:22.295Z,47.71
2022-08-25T00:35:32.293Z,47.61
2022-08-25T00:35:42.317Z,47.61
2022-08-25T00:35:52.289Z,47.71
2022-08-25T00:36:02.304Z,47.58
2022-08-25T00:36:12.287Z,47.58
2022-08-25T00:36:22.290Z,47.58
2022-08-25T00:36:32.284Z,47.58
2022-08-25T00:36:42.292Z,47.58
2022-08-25T00:36:52.280Z,47.71
2022-08-25T00:37:02.286Z,47.68
2022-08-25T00:37:12.280Z,47.68
2022-08-25T00:37:22.281Z,47.68
2022-08-25T00:37:32.278Z,47.71
2022-08-25T00:37:42.278Z,47.71
2022-08-25T00:37:52.277Z,47.80
2022-08-25T00:38:02.399Z,47.80
2022-08-25T00:38:12.272Z,47.80
2022-08-25T00:38:22.274Z,47.80
2022-08-25T00:38:32.271Z,47.71
2022-08-25T00:38:42.273Z,47.71
2022-08-25T00:38:52.269Z,47.68
2022-08-25T00:39:02.272Z,47.71
2022-08-25T00:39:12.264Z,47.68
2022-08-25T00:39:22.269Z,47.58
2022-08-25T00:39:32.274Z,47.58
2022-08-25T00:39:42.266Z,47.58
2022-08-25T00:39:52.312Z,47.49
2022-08-25T00:40:02.317Z,47.58
2022-08-25T00:40:12.274Z,47.71
2022-08-25T00:40:22.384Z,47.71
2022-08-25T00:40:32.352Z,47.78
2022-08-25T00:40:42.261Z,47.78
2022-08-25T00:40:52.254Z,47.80
2022-08-25T00:41:02.279Z,47.80
2022-08-25T00:41:12.250Z,47.80
2022-08-25T00:41:22.255Z,47.68
2022-08-25T00:41:32.249Z,47.71
2022-08-25T00:41:42.253Z,47.71
2022-08-25T00:41:52.248Z,47.68
2022-08-25T00:42:02.252Z,47.78
2022-08-25T00:42:16.268Z,47.68
2022-08-25T00:42:32.246Z,47.71
2022-08-25T00:42:42.246Z,47.71
2022-08-25T00:42:52.240Z,47.78
2022-08-25T00:43:02.243Z,47.80
2022-08-25T00:43:12.241Z,47.90
2022-08-25T00:43:22.244Z,47.90
2022-08-25T00:43:32.236Z,47.78
2022-08-25T00:43:42.243Z,47.80
2022-08-25T00:43:52.232Z,47.80
2022-08-25T00:44:02.239Z,47.90
2022-08-25T00:44:12.234Z,47.80
2022-08-25T00:44:22.235Z,47.78
2022-08-25T00:44:32.231Z,47.80
2022-08-25T00:44:42.234Z,47.68
2022-08-25T00:44:53.004Z,47.78
2022-08-25T00:45:02.348Z,47.78
2022-08-25T00:45:12.225Z,47.68
2022-08-25T00:45:22.228Z,47.78
2022-08-25T00:45:32.226Z,47.68
2022-08-25T00:45:42.226Z,47.58
2022-08-25T00:45:52.277Z,47.58
2022-08-25T00:46:02.373Z,47.58
2022-08-25T00:46:12.286Z,47.58
2022-08-25T00:46:22.257Z,47.58
2022-08-25T00:46:32.276Z,47.58
2022-08-25T00:46:42.312Z,47.58
2022-08-25T00:46:52.221Z,47.58
2022-08-25T00:47:02.214Z,47.68
2022-08-25T00:47:12.216Z,47.68
2022-08-25T00:47:32.209Z,47.68
2022-08-25T00:47:42.211Z,47.58
2022-08-25T00:47:52.209Z,47.58
2022-08-25T00:48:02.346Z,47.58
2022-08-25T00:48:12.209Z,47.58
2022-08-25T00:48:22.208Z,47.68
2022-08-25T00:48:32.204Z,47.68
2022-08-25T00:48:42.203Z,47.68
2022-08-25T00:48:52.202Z,47.68
2022-08-25T00:49:02.202Z,47.78
2022-08-25T00:49:24.560Z,47.68
2022-08-25T00:49:29.965Z,47.80
2022-08-25T00:49:34.637Z,47.68
2022-08-25T00:49:44.642Z,47.68
2022-08-25T00:50:04.639Z,47.68
2022-08-25T00:50:14.645Z,47.78
2022-08-25T00:50:26.632Z,47.78
2022-08-25T00:50:34.633Z,47.80
2022-08-25T00:50:44.635Z,47.90
2022-08-25T00:50:54.630Z,47.88
2022-08-25T00:51:04.632Z,47.80
2022-08-25T00:51:14.643Z,47.78
2022-08-25T00:51:24.633Z,47.78
2022-08-25T00:51:34.624Z,47.68
2022-08-25T00:51:44.630Z,47.78
2022-08-25T00:51:54.620Z,47.78
2022-08-25T00:52:04.633Z,47.78
2022-08-25T00:52:14.630Z,47.78
2022-08-25T00:52:34.619Z,47.78
2022-08-25T00:52:44.622Z,47.78
2022-08-25T00:52:54.618Z,47.78
2022-08-25T00:53:04.620Z,47.78
2022-08-25T00:53:14.615Z,47.78
2022-08-25T00:53:24.617Z,47.78
2022-08-25T00:53:34.611Z,47.78
2022-08-25T00:53:44.614Z,47.78
2022-08-25T00:53:54.608Z,47.78
2022-08-25T00:54:04.612Z,47.78
2022-08-25T00:54:14.608Z,47.78
2022-08-25T00:54:24.609Z,47.78
2022-08-25T00:54:34.606Z,47.78
2022-08-25T00:54:44.606Z,47.88
2022-08-25T00:54:54.605Z,47.78
2022-08-25T00:55:14.600Z,47.90
2022-08-25T00:55:24.605Z,47.90
2022-08-25T00:55:34.601Z,47.80
2022-08-25T00:55:44.600Z,47.88
2022-08-25T00:55:54.596Z,47.90
2022-08-25T00:56:04.603Z,47.88
2022-08-25T00:56:14.595Z,47.78
2022-08-25T00:56:24.609Z,47.90
2022-08-25T00:56:34.591Z,47.88
2022-08-25T00:56:44.590Z,47.88
2022-08-25T00:56:54.591Z,47.88
2022-08-25T00:57:04.592Z,47.88
2022-08-25T00:57:14.588Z,47.78
2022-08-25T00:57:28.964Z,47.78
2022-08-25T00:57:44.589Z,47.78
2022-08-25T00:57:54.581Z,47.78
2022-08-25T00:58:04.797Z,47.78
2022-08-25T00:58:14.580Z,47.78
2022-08-25T00:58:24.581Z,47.68
2022-08-25T00:58:34.576Z,47.68
2022-08-25T00:58:44.609Z,47.68
2022-08-25T00:59:09.174Z,47.68
2022-08-25T00:59:13.839Z,47.58
2022-08-25T00:59:23.835Z,47.68
2022-08-25T00:59:33.837Z,47.68
2022-08-25T00:59:43.834Z,47.68
2022-08-25T00:59:53.835Z,47.68
2022-08-25T01:00:03.831Z,47.58
2022-08-25T01:00:13.832Z,47.58
2022-08-25T01:00:23.829Z,47.68
2022-08-25T01:00:33.833Z,47.68
2022-08-25T01:00:43.829Z,47.68
2022-08-25T01:00:53.840Z,47.68
2022-08-25T01:01:03.865Z,47.68
2022-08-25T01:01:13.899Z,47.68
2022-08-25T01:01:23.900Z,47.68
2022-08-25T01:01:33.925Z,47.58
2022-08-25T01:01:43.877Z,47.58
2022-08-25T01:01:54.053Z,47.58
2022-08-25T01:02:03.818Z,47.58
2022-08-25T01:02:14.157Z,47.68
2022-08-25T01:02:23.856Z,47.68
2022-08-25T01:02:33.874Z,47.78
2022-08-25T01:02:43.830Z,47.78
2022-08-25T01:02:53.869Z,47.78
2022-08-25T01:03:03.878Z,47.68
2022-08-25T01:03:13.814Z,47.78
2022-08-25T01:03:25.286Z,47.78
2022-08-25T01:03:37.682Z,47.88
2022-08-25T01:03:43.810Z,47.88
2022-08-25T01:03:53.811Z,47.88
2022-08-25T01:04:03.804Z,47.78
2022-08-25T01:04:13.807Z,47.78
2022-08-25T01:04:23.803Z,47.88
2022-08-25T01:04:33.826Z,47.88
2022-08-25T01:04:48.579Z,47.98
2022-08-25T01:04:53.818Z,48.08
2022-08-25T01:05:03.807Z,48.08
2022-08-25T01:05:13.842Z,48.08
2022-08-25T01:05:23.800Z,48.08
2022-08-25T01:05:33.836Z,47.98
2022-08-25T01:05:43.792Z,48.08
2022-08-25T01:05:53.795Z,48.08
2022-08-25T01:06:03.792Z,48.08
2022-08-25T01:06:13.793Z,47.98
2022-08-25T01:06:23.788Z,47.98
2022-08-25T01:06:33.790Z,47.98
2022-08-25T01:06:43.801Z,47.98
2022-08-25T01:06:53.789Z,47.88
2022-08-25T01:07:03.789Z,47.88
2022-08-25T01:07:15.504Z,47.98
2022-08-25T01:07:23.781Z,47.98
2022-08-25T01:07:33.783Z,47.98
2022-08-25T01:07:44.715Z,48.08
2022-08-25T01:07:53.782Z,47.98
2022-08-25T01:08:06.568Z,47.98
2022-08-25T01:08:16.276Z,47.98
2022-08-25T01:08:23.776Z,48.08
2022-08-25T01:08:33.775Z,48.08
2022-08-25T01:08:43.772Z,48.08
2022-08-25T01:08:53.775Z,48.08
2022-08-25T01:09:03.770Z,47.98
2022-08-25T01:09:13.774Z,47.98
2022-08-25T01:09:23.771Z,48.08
2022-08-25T01:09:33.772Z,48.08
2022-08-25T01:09:43.767Z,48.08
2022-08-25T01:09:53.768Z,48.08
2022-08-25T01:10:03.764Z,48.08
2022-08-25T01:10:13.780Z,48.18
2022-08-25T01:10:23.772Z,48.20
2022-08-25T01:10:33.765Z,48.20
2022-08-25T01:10:43.760Z,48.18
2022-08-25T01:10:53.780Z,48.08
2022-08-25T01:11:03.760Z,48.08
2022-08-25T01:11:13.759Z,48.08
2022-08-25T01:11:23.773Z,48.08
2022-08-25T01:11:33.756Z,48.08
2022-08-25T01:11:43.752Z,47.98
2022-08-25T01:11:53.754Z,47.88
2022-08-25T01:12:03.771Z,47.98
2022-08-25T01:12:13.752Z,47.98
2022-08-25T01:12:23.749Z,47.98
2022-08-25T01:12:33.749Z,48.08
2022-08-25T01:12:43.749Z,48.08
2022-08-25T01:12:53.749Z,48.08
2022-08-25T01:13:03.744Z,48.08
2022-08-25T01:13:16.588Z,48.08
2022-08-25T01:13:23.742Z,48.08
2022-08-25T01:13:33.745Z,47.98
2022-08-25T01:13:43.740Z,47.98
2022-08-25T01:13:53.742Z,47.98
2022-08-25T01:14:03.741Z,48.08
2022-08-25T01:14:13.741Z,47.98
2022-08-25T01:14:23.734Z,48.08
2022-08-25T01:14:33.737Z,48.08
2022-08-25T01:14:43.733Z,48.08
2022-08-25T01:14:53.735Z,48.08
2022-08-25T01:15:03.729Z,48.08
2022-08-25T01:15:23.765Z,48.08
2022-08-25T01:15:33.772Z,48.08
2022-08-25T01:15:43.809Z,48.08
2022-08-25T01:15:53.792Z,48.08
2022-08-25T01:16:03.846Z,47.98
2022-08-25T01:16:13.785Z,48.08
2022-08-25T01:16:23.725Z,48.08
2022-08-25T01:16:33.723Z,47.98
2022-08-25T01:16:43.729Z,48.08
2022-08-25T01:16:53.902Z,48.08
2022-08-25T01:17:03.723Z,47.98
2022-08-25T01:17:13.728Z,47.98
2022-08-25T01:17:23.718Z,47.98
2022-08-25T01:17:33.715Z,47.98
2022-08-25T01:17:43.723Z,47.98
2022-08-25T01:17:53.713Z,47.98
2022-08-25T01:18:03.882Z,47.98
2022-08-25T01:18:13.711Z,47.98
2022-08-25T01:18:23.723Z,47.98
2022-08-25T01:18:33.724Z,48.08
2022-08-25T01:18:43.711Z,48.08
2022-08-25T01:18:53.706Z,48.18
2022-08-25T01:19:03.710Z,48.08
2022-08-25T01:19:15.455Z,48.08
2022-08-25T01:19:23.705Z,48.08
2022-08-25T01:19:33.703Z,48.08
2022-08-25T01:19:43.705Z,48.08
2022-08-25T01:19:53.700Z,48.08
2022-08-25T01:20:03.700Z,48.18
2022-08-25T01:20:13.698Z,48.18
2022-08-25T01:20:23.697Z,48.18
2022-08-25T01:20:33.741Z,48.18
2022-08-25T01:20:43.695Z,48.08
2022-08-25T01:20:53.692Z,48.18
2022-08-25T01:21:03.693Z,48.08
2022-08-25T01:21:13.690Z,47.98
2022-08-25T01:21:23.695Z,47.98
2022-08-25T01:21:33.687Z,47.98
2022-08-25T01:21:43.702Z,48.08
2022-08-25T01:21:53.687Z,47.98
2022-08-25T01:22:03.688Z,48.18
2022-08-25T01:22:13.683Z,48.18
2022-08-25T01:22:23.686Z,48.18
2022-08-25T01:22:33.683Z,48.18
2022-08-25T01:22:43.684Z,48.18
2022-08-25T01:22:55.081Z,48.18
2022-08-25T01:23:13.681Z,48.08
2022-08-25T01:23:23.682Z,48.08
2022-08-25T01:23:33.680Z,48.08
2022-08-25T01:23:43.678Z,48.18
2022-08-25T01:23:53.672Z,48.08
2022-08-25T01:24:03.690Z,48.08
2022-08-25T01:24:13.671Z,48.08
2022-08-25T01:24:23.671Z,48.08
2022-08-25T01:24:33.673Z,48.08
2022-08-25T01:24:43.670Z,48.18
2022-08-25T01:24:53.668Z,48.27
2022-08-25T01:25:03.670Z,48.27
2022-08-25T01:25:13.663Z,48.18
2022-08-25T01:25:23.666Z,48.18
2022-08-25T01:25:33.662Z,48.18
2022-08-25T01:25:43.666Z,48.30
2022-08-25T01:26:03.665Z,48.30
2022-08-25T01:26:13.657Z,48.27
2022-08-25T01:26:30.338Z,48.18
2022-08-25T01:26:35.411Z,48.18
2022-08-25T01:26:43.656Z,48.18
2022-08-25T01:26:53.651Z,48.18
2022-08-25T01:27:03.654Z,48.18
2022-08-25T01:27:13.652Z,48.27
2022-08-25T01:27:23.659Z,48.27
2022-08-25T01:27:33.648Z,48.27
2022-08-25T01:27:43.650Z,48.18
2022-08-25T01:27:53.646Z,48.18
2022-08-25T01:28:03.813Z,48.18
2022-08-25T01:28:13.645Z,48.18
2022-08-25T01:28:23.648Z,48.18
2022-08-25T01:28:33.642Z,48.18
2022-08-25T01:28:43.645Z,48.08
2022-08-25T01:28:53.641Z,48.18
2022-08-25T01:29:03.644Z,48.27
2022-08-25T01:29:13.656Z,48.27
2022-08-25T01:29:23.641Z,48.38
2022-08-25T01:29:33.651Z,48.27
2022-08-25T01:29:43.638Z,48.27
2022-08-25T01:29:53.633Z,48.27
2022-08-25T01:30:03.635Z,48.27
2022-08-25T01:30:13.636Z,48.27
2022-08-25T01:30:23.634Z,48.27
2022-08-25T01:30:33.670Z,48.18
2022-08-25T01:30:43.693Z,48.18
2022-08-25T01:30:53.690Z,48.27
2022-08-25T01:31:03.669Z,48.38
2022-08-25T01:31:24.003Z,48.27
2022-08-25T01:31:28.946Z,48.38
2022-08-25T01:31:33.656Z,48.38
2022-08-25T01:31:43.625Z,48.38
2022-08-25T01:31:53.621Z,48.40
2022-08-25T01:32:03.621Z,48.40
2022-08-25T01:32:13.620Z,48.40
2022-08-25T01:32:23.635Z,48.27
2022-08-25T01:32:33.616Z,48.40
2022-08-25T01:32:43.621Z,48.38
2022-08-25T01:32:53.613Z,48.38
2022-08-25T01:33:03.617Z,48.27
2022-08-25T01:33:13.613Z,48.27
2022-08-25T01:33:33.609Z,48.38
2022-08-25T01:33:43.616Z,48.47
2022-08-25T01:33:53.611Z,48.50
2022-08-25T01:34:03.609Z,48.60
2022-08-25T01:34:13.604Z,48.60
2022-08-25T01:34:23.607Z,48.60
2022-08-25T01:34:33.602Z,48.60
2022-08-25T01:34:43.606Z,48.60
2022-08-25T01:34:53.602Z,48.60
2022-08-25T01:35:03.602Z,48.60
2022-08-25T01:35:13.598Z,48.69
2022-08-25T01:35:23.601Z,48.69
2022-08-25T01:35:33.596Z,48.69
2022-08-25T01:35:43.598Z,48.60
2022-08-25T01:35:53.594Z,48.60
2022-08-25T01:36:03.600Z,48.69
2022-08-25T01:36:13.589Z,48.69
2022-08-25T01:36:23.594Z,48.69
2022-08-25T01:36:33.590Z,48.80
2022-08-25T01:36:43.594Z,48.69
2022-08-25T01:36:53.588Z,48.69
2022-08-25T01:37:03.590Z,48.60
2022-08-25T01:37:13.713Z,48.69
2022-08-25T01:37:23.585Z,48.80
2022-08-25T01:37:33.594Z,48.90
2022-08-25T01:37:43.584Z,48.90
2022-08-25T01:37:53.582Z,48.90
2022-08-25T01:38:03.889Z,48.90
2022-08-25T01:38:13.575Z,48.99
2022-08-25T01:38:33.576Z,48.90
2022-08-25T01:38:43.576Z,48.80
2022-08-25T01:38:53.572Z,48.69
2022-08-25T01:39:03.582Z,48.80
2022-08-25T01:39:13.571Z,48.80
2022-08-25T01:39:23.574Z,48.80
2022-08-25T01:39:33.585Z,48.90
2022-08-25T01:39:43.568Z,48.90
2022-08-25T01:39:53.610Z,48.90
2022-08-25T01:40:03.660Z,48.90
2022-08-25T01:40:13.599Z,48.90
2022-08-25T01:40:23.678Z,48.90
2022-08-25T01:40:33.564Z,48.90
2022-08-25T01:40:43.564Z,48.90
2022-08-25T01:41:03.562Z,48.90
2022-08-25T01:41:13.557Z,48.90
2022-08-25T01:41:23.560Z,48.99
2022-08-25T01:41:33.554Z,48.99
2022-08-25T01:41:43.555Z,48.90
2022-08-25T01:41:53.552Z,48.90
2022-08-25T01:42:03.555Z,48.90
2022-08-25T01:42:13.550Z,48.80
2022-08-25T01:42:23.549Z,48.80
2022-08-25T01:42:33.547Z,48.90
2022-08-25T01:42:43.554Z,48.80
2022-08-25T01:42:53.545Z,48.80
2022-08-25T01:43:03.548Z,48.90
2022-08-25T01:43:13.543Z,48.90
2022-08-25T01:43:23.546Z,48.90
2022-08-25T01:43:43.544Z,48.80
2022-08-25T01:43:53.538Z,48.80
2022-08-25T01:44:03.540Z,48.80
2022-08-25T01:44:16.154Z,48.69
2022-08-25T01:44:23.539Z,48.69
2022-08-25T01:44:33.533Z,48.69
2022-08-25T01:44:43.547Z,48.69
2022-08-25T01:44:53.533Z,48.80
2022-08-25T01:45:03.540Z,48.69
2022-08-25T01:45:13.529Z,48.69
2022-08-25T01:45:23.536Z,48.80
2022-08-25T01:45:33.525Z,48.69
2022-08-25T01:45:43.598Z,48.80
2022-08-25T01:45:53.576Z,48.80
2022-08-25T01:46:03.610Z,48.80
2022-08-25T01:46:13.578Z,48.80
2022-08-25T01:46:23.657Z,48.69
2022-08-25T01:46:33.586Z,48.80
2022-08-25T01:46:43.522Z,48.80
2022-08-25T01:46:53.518Z,48.80
2022-08-25T01:47:03.519Z,48.69
2022-08-25T01:47:13.536Z,48.69
2022-08-25T01:47:23.520Z,48.80
2022-08-25T01:47:33.514Z,48.90
2022-08-25T01:47:43.515Z,48.90
2022-08-25T01:47:53.518Z,48.80
2022-08-25T01:48:03.697Z,48.80
2022-08-25T01:48:13.510Z,48.80
2022-08-25T01:48:23.512Z,48.69
2022-08-25T01:48:43.510Z,48.69
2022-08-25T01:48:53.508Z,48.80
2022-08-25T01:49:06.717Z,48.69
2022-08-25T01:49:13.502Z,48.80
2022-08-25T01:49:23.508Z,48.80
2022-08-25T01:49:33.500Z,48.80
2022-08-25T01:49:43.504Z,48.69
2022-08-25T01:49:53.501Z,48.60
2022-08-25T01:50:03.503Z,48.69
2022-08-25T01:50:13.509Z,48.80
2022-08-25T01:50:23.500Z,48.80
2022-08-25T01:50:33.494Z,48.80
2022-08-25T01:50:43.497Z,48.80
2022-08-25T01:50:53.493Z,48.80
2022-08-25T01:51:13.491Z,48.90
2022-08-25T01:51:23.495Z,48.90
2022-08-25T01:51:33.489Z,48.90
2022-08-25T01:51:43.491Z,48.90
2022-08-25T01:51:53.488Z,48.90
2022-08-25T01:52:03.487Z,48.90
2022-08-25T01:52:13.485Z,48.90
2022-08-25T01:52:23.506Z,48.99
2022-08-25T01:52:33.483Z,48.99
2022-08-25T01:52:43.482Z,48.99
2022-08-25T01:52:53.479Z,48.99
2022-08-25T01:53:03.486Z,48.90
2022-08-25T01:53:13.477Z,48.99
2022-08-25T01:53:23.489Z,48.99
2022-08-25T01:53:43.479Z,49.09
2022-08-25T01:53:53.475Z,49.09
2022-08-25T01:54:03.480Z,49.09
2022-08-25T01:54:13.469Z,49.09
2022-08-25T01:54:23.476Z,49.19
2022-08-25T01:54:33.469Z,49.09
2022-08-25T01:54:43.473Z,49.19
2022-08-25T01:54:53.467Z,49.09
2022-08-25T01:55:03.474Z,48.99
2022-08-25T01:55:13.463Z,49.09
2022-08-25T01:55:23.466Z,49.09
2022-08-25T01:55:33.462Z,49.19
2022-08-25T01:55:43.465Z,49.19
2022-08-25T01:55:54.198Z,49.19
2022-08-25T01:56:03.919Z,49.19
2022-08-25T01:56:13.457Z,49.19
2022-08-25T01:56:23.458Z,49.29
2022-08-25T01:56:33.454Z,49.21
2022-08-25T01:56:43.460Z,49.32
2022-08-25T01:56:53.453Z,49.29
2022-08-25T01:57:03.456Z,49.29
2022-08-25T01:57:13.449Z,49.32
2022-08-25T01:57:23.454Z,49.21
2022-08-25T01:57:33.449Z,49.19
2022-08-25T01:57:43.452Z,49.32
2022-08-25T01:57:53.451Z,49.32
2022-08-25T01:58:03.699Z,49.32
2022-08-25T01:58:13.445Z,49.32
2022-08-25T01:58:23.444Z,49.29
2022-08-25T01:58:33.445Z,49.29
2022-08-25T01:58:53.443Z,49.32
2022-08-25T01:59:03.439Z,49.32
2022-08-25T01:59:13.443Z,49.41
2022-08-25T01:59:24.311Z,49.32
2022-08-25T01:59:33.441Z,49.41
2022-08-25T01:59:43.441Z,49.41
2022-08-25T01:59:53.440Z,49.41
2022-08-25T02:00:03.432Z,49.41
2022-08-25T02:00:13.438Z,49.41
2022-08-25T02:00:23.429Z,49.41
2022-08-25T02:00:33.433Z,49.41
2022-08-25T02:00:43.427Z,49.51
2022-08-25T02:00:53.433Z,49.41
2022-08-25T02:01:03.536Z,49.41
2022-08-25T02:01:23.558Z,49.51
2022-08-25T02:01:33.513Z,49.51
2022-08-25T02:01:43.466Z,49.51
2022-08-25T02:01:59.816Z,49.61
2022-08-25T02:02:04.856Z,49.51
2022-08-25T02:02:13.458Z,49.51
2022-08-25T02:02:23.451Z,49.51
2022-08-25T02:02:33.484Z,49.51
2022-08-25T02:02:44.045Z,49.41
2022-08-25T02:02:54.305Z,49.41
2022-08-25T02:03:03.587Z,49.32
2022-08-25T02:03:15.749Z,49.32
2022-08-25T02:03:23.414Z,49.41
2022-08-25T02:03:33.410Z,49.32
2022-08-25T02:03:53.410Z,49.41
2022-08-25T02:04:03.410Z,49.41
2022-08-25T02:04:13.412Z,49.32
2022-08-25T02:04:23.400Z,49.41
2022-08-25T02:04:33.405Z,49.41
2022-08-25T02:04:44.532Z,49.41
2022-08-25T02:04:53.417Z,49.41
2022-08-25T02:05:03.398Z,49.41
2022-08-25T02:05:13.403Z,49.41
2022-08-25T02:05:23.923Z,49.32
2022-08-25T02:05:33.414Z,49.32
2022-08-25T02:05:43.395Z,49.32
2022-08-25T02:05:53.396Z,49.41
2022-08-25T02:06:03.798Z,49.41
2022-08-25T02:06:13.395Z,49.41
2022-08-25T02:06:28.690Z,49.41
2022-08-25T02:06:34.381Z,49.32
2022-08-25T02:06:43.388Z,49.41
2022-08-25T02:06:53.391Z,49.41
2022-08-25T02:07:03.386Z,49.41
2022-08-25T02:07:13.388Z,49.41
2022-08-25T02:07:23.384Z,49.51
2022-08-25T02:07:33.386Z,49.51
2022-08-25T02:07:43.384Z,49.51
2022-08-25T02:07:53.384Z,49.61
2022-08-25T02:08:03.492Z,49.51
2022-08-25T02:08:13.384Z,49.61
2022-08-25T02:08:23.377Z,49.61
2022-08-25T02:08:33.379Z,49.61
2022-08-25T02:08:43.377Z,49.61
2022-08-25T02:09:03.373Z,49.61
2022-08-25T02:09:13.379Z,49.71
2022-08-25T02:09:23.370Z,49.71
2022-08-25T02:09:33.375Z,49.61
2022-08-25T02:09:43.366Z,49.71
2022-08-25T02:09:53.371Z,49.71
2022-08-25T02:10:03.671Z,49.71
2022-08-25T02:10:13.379Z,49.71
2022-08-25T02:10:23.378Z,49.71
2022-08-25T02:10:33.382Z,49.71
2022-08-25T02:10:43.362Z,49.71
2022-08-25T02:10:53.365Z,49.71
2022-08-25T02:11:03.361Z,49.71
2022-08-25T02:11:13.361Z,49.71
2022-08-25T02:11:23.356Z,49.81
2022-08-25T02:11:33.360Z,49.81
2022-08-25T02:11:43.354Z,49.81
2022-08-25T02:11:53.358Z,49.81
2022-08-25T02:12:03.366Z,49.81
2022-08-25T02:12:13.352Z,49.81
2022-08-25T02:12:23.349Z,49.71
2022-08-25T02:12:33.352Z,49.81
2022-08-25T02:12:43.349Z,49.81
2022-08-25T02:12:54.299Z,49.81
2022-08-25T02:13:03.345Z,49.81
2022-08-25T02:13:13.349Z,49.81
2022-08-25T02:13:27.011Z,49.81
2022-08-25T02:13:35.867Z,49.81
2022-08-25T02:13:43.341Z,49.81
2022-08-25T02:13:53.342Z,49.81
2022-08-25T02:14:03.340Z,49.81
2022-08-25T02:14:13.342Z,49.81
2022-08-25T02:14:23.340Z,49.91